sensor_id;sensor_type;location;lat;lon;timestamp;P1;durP1;ratioP1;P2;durP2;ratioP2
77769;SDS011;66961;51.482;9.160;2023-08-08T00:01:14;5.63;;;2.90;;
77769;SDS011;66961;51.482;9.160;2023-08-08T00:03:39;8.50;;;3.03;;
77769;SDS011;66961;51.482;9.160;2023-08-08T00:06:04;7.33;;;3.07;;
77769;SDS011;66961;51.482;9.160;2023-08-08T00:08:30;5.63;;;3.00;;
77769;SDS011;66961;51.482;9.160;2023-08-08T00:10:55;4.10;;;3.10;;
77769;SDS011;66961;51.482;9.160;2023-08-08T00:13:20;6.10;;;2.97;;
77769;SDS011;66961;51.482;9.160;2023-08-08T00:15:45;5.70;;;3.07;;
77769;SDS011;66961;51.482;9.160;2023-08-08T00:18:11;5.97;;;2.70;;
77769;SDS011;66961;51.482;9.160;2023-08-08T00:20:36;3.57;;;2.40;;
77769;SDS011;66961;51.482;9.160;2023-08-08T00:23:01;6.43;;;3.00;;
77769;SDS011;66961;51.482;9.160;2023-08-08T00:25:27;5.20;;;2.88;;
77769;SDS011;66961;51.482;9.160;2023-08-08T00:27:52;4.67;;;2.67;;
77769;SDS011;66961;51.482;9.160;2023-08-08T00:30:17;4.60;;;2.60;;
77769;SDS011;66961;51.482;9.160;2023-08-08T00:32:42;4.27;;;2.40;;
77769;SDS011;66961;51.482;9.160;2023-08-08T00:35:08;6.32;;;2.42;;
77769;SDS011;66961;51.482;9.160;2023-08-08T00:37:33;5.15;;;2.95;;
77769;SDS011;66961;51.482;9.160;2023-08-08T00:39:59;4.70;;;2.38;;
77769;SDS011;66961;51.482;9.160;2023-08-08T00:42:24;4.70;;;2.40;;
77769;SDS011;66961;51.482;9.160;2023-08-08T00:44:49;3.80;;;2.37;;
77769;SDS011;66961;51.482;9.160;2023-08-08T00:47:15;4.60;;;2.47;;
77769;SDS011;66961;51.482;9.160;2023-08-08T00:49:40;4.55;;;2.53;;
77769;SDS011;66961;51.482;9.160;2023-08-08T00:52:06;5.50;;;2.50;;
77769;SDS011;66961;51.482;9.160;2023-08-08T00:54:32;4.60;;;2.00;;
77769;SDS011;66961;51.482;9.160;2023-08-08T00:56:57;5.23;;;2.00;;
77769;SDS011;66961;51.482;9.160;2023-08-08T00:59:23;4.32;;;2.60;;
77769;SDS011;66961;51.482;9.160;2023-08-08T01:01:48;4.90;;;2.05;;
77769;SDS011;66961;51.482;9.160;2023-08-08T01:04:13;4.00;;;2.03;;
77769;SDS011;66961;51.482;9.160;2023-08-08T01:06:42;4.30;;;2.10;;
77769;SDS011;66961;51.482;9.160;2023-08-08T01:09:21;4.32;;;2.10;;
77769;SDS011;66961;51.482;9.160;2023-08-08T01:11:54;3.45;;;1.90;;
77769;SDS011;66961;51.482;9.160;2023-08-08T01:14:20;4.03;;;1.95;;
77769;SDS011;66961;51.482;9.160;2023-08-08T01:16:49;3.45;;;1.90;;
77769;SDS011;66961;51.482;9.160;2023-08-08T01:19:15;3.78;;;2.10;;
77769;SDS011;66961;51.482;9.160;2023-08-08T01:21:48;5.05;;;1.75;;
77769;SDS011;66961;51.482;9.160;2023-08-08T01:26:47;2.75;;;1.90;;
77769;SDS011;66961;51.482;9.160;2023-08-08T01:29:12;6.95;;;1.90;;
77769;SDS011;66961;51.482;9.160;2023-08-08T01:31:38;3.67;;;1.55;;
77769;SDS011;66961;51.482;9.160;2023-08-08T01:34:03;5.13;;;2.00;;
77769;SDS011;66961;51.482;9.160;2023-08-08T01:36:30;4.40;;;1.80;;
77769;SDS011;66961;51.482;9.160;2023-08-08T01:39:00;3.13;;;1.73;;
77769;SDS011;66961;51.482;9.160;2023-08-08T01:41:26;5.22;;;1.70;;
77769;SDS011;66961;51.482;9.160;2023-08-08T01:43:52;2.67;;;1.73;;
77769;SDS011;66961;51.482;9.160;2023-08-08T01:46:18;4.03;;;1.80;;
77769;SDS011;66961;51.482;9.160;2023-08-08T01:48:46;3.38;;;1.60;;
77769;SDS011;66961;51.482;9.160;2023-08-08T01:51:12;4.88;;;1.90;;
77769;SDS011;66961;51.482;9.160;2023-08-08T01:53:37;6.03;;;1.90;;
77769;SDS011;66961;51.482;9.160;2023-08-08T01:56:02;2.63;;;1.63;;
77769;SDS011;66961;51.482;9.160;2023-08-08T01:58:28;2.88;;;1.88;;
77769;SDS011;66961;51.482;9.160;2023-08-08T02:00:53;7.30;;;1.92;;
77769;SDS011;66961;51.482;9.160;2023-08-08T02:03:18;3.35;;;1.67;;
77769;SDS011;66961;51.482;9.160;2023-08-08T02:05:44;3.40;;;1.80;;
77769;SDS011;66961;51.482;9.160;2023-08-08T02:08:09;5.27;;;2.13;;
77769;SDS011;66961;51.482;9.160;2023-08-08T02:10:34;3.50;;;2.20;;
77769;SDS011;66961;51.482;9.160;2023-08-08T02:12:59;4.43;;;2.33;;
77769;SDS011;66961;51.482;9.160;2023-08-08T02:15:25;3.57;;;1.73;;
77769;SDS011;66961;51.482;9.160;2023-08-08T02:17:50;4.20;;;2.40;;
77769;SDS011;66961;51.482;9.160;2023-08-08T02:20:15;4.73;;;2.10;;
77769;SDS011;66961;51.482;9.160;2023-08-08T02:22:41;4.18;;;2.60;;
77769;SDS011;66961;51.482;9.160;2023-08-08T02:25:06;4.80;;;2.07;;
77769;SDS011;66961;51.482;9.160;2023-08-08T02:27:32;4.57;;;2.67;;
77769;SDS011;66961;51.482;9.160;2023-08-08T02:29:57;6.60;;;2.67;;
77769;SDS011;66961;51.482;9.160;2023-08-08T02:32:22;4.27;;;1.83;;
77769;SDS011;66961;51.482;9.160;2023-08-08T02:34:48;4.82;;;2.13;;
77769;SDS011;66961;51.482;9.160;2023-08-08T02:37:13;4.33;;;2.07;;
77769;SDS011;66961;51.482;9.160;2023-08-08T02:39:39;3.90;;;2.70;;
77769;SDS011;66961;51.482;9.160;2023-08-08T02:42:04;4.27;;;2.83;;
77769;SDS011;66961;51.482;9.160;2023-08-08T02:44:30;9.07;;;2.83;;
77769;SDS011;66961;51.482;9.160;2023-08-08T02:46:55;8.13;;;2.83;;
77769;SDS011;66961;51.482;9.160;2023-08-08T02:49:20;10.40;;;3.43;;
77769;SDS011;66961;51.482;9.160;2023-08-08T02:51:45;8.00;;;3.17;;
77769;SDS011;66961;51.482;9.160;2023-08-08T02:54:11;5.50;;;2.07;;
77769;SDS011;66961;51.482;9.160;2023-08-08T02:56:36;4.47;;;2.30;;
77769;SDS011;66961;51.482;9.160;2023-08-08T02:59:01;4.67;;;2.90;;
77769;SDS011;66961;51.482;9.160;2023-08-08T03:01:27;3.57;;;2.27;;
77769;SDS011;66961;51.482;9.160;2023-08-08T03:03:52;3.87;;;2.50;;
77769;SDS011;66961;51.482;9.160;2023-08-08T03:06:17;4.17;;;2.40;;
77769;SDS011;66961;51.482;9.160;2023-08-08T03:08:42;4.70;;;2.70;;
77769;SDS011;66961;51.482;9.160;2023-08-08T03:11:08;3.93;;;2.47;;
77769;SDS011;66961;51.482;9.160;2023-08-08T03:13:33;3.87;;;2.40;;
77769;SDS011;66961;51.482;9.160;2023-08-08T03:15:58;4.80;;;2.13;;
77769;SDS011;66961;51.482;9.160;2023-08-08T03:18:24;4.45;;;2.13;;
77769;SDS011;66961;51.482;9.160;2023-08-08T03:20:49;5.07;;;2.53;;
77769;SDS011;66961;51.482;9.160;2023-08-08T03:23:14;2.77;;;2.10;;
77769;SDS011;66961;51.482;9.160;2023-08-08T03:25:39;4.20;;;2.03;;
77769;SDS011;66961;51.482;9.160;2023-08-08T03:28:05;3.13;;;2.20;;
77769;SDS011;66961;51.482;9.160;2023-08-08T03:30:30;2.70;;;2.17;;
77769;SDS011;66961;51.482;9.160;2023-08-08T03:32:55;3.28;;;2.10;;
77769;SDS011;66961;51.482;9.160;2023-08-08T03:35:21;2.93;;;2.10;;
77769;SDS011;66961;51.482;9.160;2023-08-08T03:37:46;4.50;;;2.27;;
77769;SDS011;66961;51.482;9.160;2023-08-08T03:40:11;2.30;;;1.40;;
77769;SDS011;66961;51.482;9.160;2023-08-08T03:42:37;3.05;;;1.77;;
77769;SDS011;66961;51.482;9.160;2023-08-08T03:45:02;4.90;;;2.28;;
77769;SDS011;66961;51.482;9.160;2023-08-08T03:47:28;4.75;;;2.15;;
77769;SDS011;66961;51.482;9.160;2023-08-08T03:49:54;2.50;;;1.90;;
77769;SDS011;66961;51.482;9.160;2023-08-08T03:52:20;2.35;;;1.60;;
77769;SDS011;66961;51.482;9.160;2023-08-08T03:54:46;5.32;;;2.30;;
77769;SDS011;66961;51.482;9.160;2023-08-08T03:57:11;4.50;;;1.65;;
77769;SDS011;66961;51.482;9.160;2023-08-08T03:59:36;3.50;;;1.60;;
77769;SDS011;66961;51.482;9.160;2023-08-08T04:02:02;2.20;;;1.70;;
77769;SDS011;66961;51.482;9.160;2023-08-08T04:04:27;2.90;;;1.92;;
77769;SDS011;66961;51.482;9.160;2023-08-08T04:06:52;2.20;;;1.33;;
77769;SDS011;66961;51.482;9.160;2023-08-08T04:09:18;2.50;;;1.77;;
77769;SDS011;66961;51.482;9.160;2023-08-08T04:11:43;3.27;;;1.70;;
77769;SDS011;66961;51.482;9.160;2023-08-08T04:14:08;4.30;;;1.80;;
77769;SDS011;66961;51.482;9.160;2023-08-08T04:16:33;2.43;;;1.73;;
77769;SDS011;66961;51.482;9.160;2023-08-08T04:18:59;2.53;;;1.53;;
77769;SDS011;66961;51.482;9.160;2023-08-08T04:21:24;3.67;;;1.80;;
77769;SDS011;66961;51.482;9.160;2023-08-08T04:23:49;6.40;;;2.07;;
77769;SDS011;66961;51.482;9.160;2023-08-08T04:26:14;3.00;;;1.87;;
77769;SDS011;66961;51.482;9.160;2023-08-08T04:28:40;5.13;;;2.37;;
77769;SDS011;66961;51.482;9.160;2023-08-08T04:31:05;3.57;;;2.20;;
77769;SDS011;66961;51.482;9.160;2023-08-08T04:33:30;6.10;;;2.60;;
77769;SDS011;66961;51.482;9.160;2023-08-08T04:35:55;4.50;;;2.40;;
77769;SDS011;66961;51.482;9.160;2023-08-08T04:38:21;3.23;;;2.47;;
77769;SDS011;66961;51.482;9.160;2023-08-08T04:40:46;3.67;;;2.57;;
77769;SDS011;66961;51.482;9.160;2023-08-08T04:43:11;4.73;;;2.57;;
77769;SDS011;66961;51.482;9.160;2023-08-08T04:45:36;4.17;;;2.97;;
77769;SDS011;66961;51.482;9.160;2023-08-08T04:48:02;4.67;;;3.33;;
77769;SDS011;66961;51.482;9.160;2023-08-08T04:50:27;7.25;;;3.25;;
77769;SDS011;66961;51.482;9.160;2023-08-08T04:52:52;3.90;;;3.20;;
77769;SDS011;66961;51.482;9.160;2023-08-08T04:55:18;6.80;;;3.73;;
77769;SDS011;66961;51.482;9.160;2023-08-08T04:57:43;5.20;;;3.50;;
77769;SDS011;66961;51.482;9.160;2023-08-08T05:00:08;5.00;;;3.23;;
77769;SDS011;66961;51.482;9.160;2023-08-08T05:02:34;5.72;;;3.40;;
77769;SDS011;66961;51.482;9.160;2023-08-08T05:05:00;7.22;;;3.67;;
77769;SDS011;66961;51.482;9.160;2023-08-08T05:07:26;8.32;;;3.70;;
77769;SDS011;66961;51.482;9.160;2023-08-08T05:09:52;5.43;;;3.45;;
77769;SDS011;66961;51.482;9.160;2023-08-08T05:12:17;8.55;;;3.58;;
77769;SDS011;66961;51.482;9.160;2023-08-08T05:14:42;5.00;;;3.47;;
77769;SDS011;66961;51.482;9.160;2023-08-08T05:17:07;4.82;;;3.63;;
77769;SDS011;66961;51.482;9.160;2023-08-08T05:19:33;6.57;;;4.33;;
77769;SDS011;66961;51.482;9.160;2023-08-08T05:21:59;7.10;;;3.73;;
77769;SDS011;66961;51.482;9.160;2023-08-08T05:24:24;7.20;;;3.92;;
77769;SDS011;66961;51.482;9.160;2023-08-08T05:26:49;6.40;;;3.60;;
77769;SDS011;66961;51.482;9.160;2023-08-08T05:29:15;6.72;;;3.80;;
77769;SDS011;66961;51.482;9.160;2023-08-08T05:31:40;6.57;;;4.20;;
77769;SDS011;66961;51.482;9.160;2023-08-08T05:34:05;6.87;;;3.73;;
77769;SDS011;66961;51.482;9.160;2023-08-08T05:36:31;7.47;;;3.60;;
77769;SDS011;66961;51.482;9.160;2023-08-08T05:38:56;8.50;;;3.80;;
77769;SDS011;66961;51.482;9.160;2023-08-08T05:41:21;5.53;;;3.60;;
77769;SDS011;66961;51.482;9.160;2023-08-08T05:43:46;7.73;;;3.50;;
77769;SDS011;66961;51.482;9.160;2023-08-08T05:46:12;4.93;;;3.57;;
77769;SDS011;66961;51.482;9.160;2023-08-08T05:48:37;8.67;;;4.30;;
77769;SDS011;66961;51.482;9.160;2023-08-08T05:51:02;4.73;;;3.20;;
77769;SDS011;66961;51.482;9.160;2023-08-08T05:53:27;7.15;;;3.90;;
77769;SDS011;66961;51.482;9.160;2023-08-08T05:55:53;6.63;;;4.20;;
77769;SDS011;66961;51.482;9.160;2023-08-08T05:58:18;7.00;;;4.60;;
77769;SDS011;66961;51.482;9.160;2023-08-08T06:00:43;6.90;;;4.60;;
77769;SDS011;66961;51.482;9.160;2023-08-08T06:03:08;4.87;;;4.13;;
77769;SDS011;66961;51.482;9.160;2023-08-08T06:05:34;6.90;;;3.87;;
77769;SDS011;66961;51.482;9.160;2023-08-08T06:07:59;7.43;;;4.20;;
77769;SDS011;66961;51.482;9.160;2023-08-08T06:10:24;9.27;;;4.50;;
77769;SDS011;66961;51.482;9.160;2023-08-08T06:12:50;6.47;;;4.20;;
77769;SDS011;66961;51.482;9.160;2023-08-08T06:15:15;6.00;;;3.55;;
77769;SDS011;66961;51.482;9.160;2023-08-08T06:17:40;6.07;;;3.88;;
77769;SDS011;66961;51.482;9.160;2023-08-08T06:20:06;8.63;;;4.27;;
77769;SDS011;66961;51.482;9.160;2023-08-08T06:22:31;6.40;;;3.95;;
77769;SDS011;66961;51.482;9.160;2023-08-08T06:24:57;6.10;;;3.65;;
77769;SDS011;66961;51.482;9.160;2023-08-08T06:27:22;7.13;;;3.80;;
77769;SDS011;66961;51.482;9.160;2023-08-08T06:29:47;6.82;;;4.05;;
77769;SDS011;66961;51.482;9.160;2023-08-08T06:32:13;7.13;;;4.10;;
77769;SDS011;66961;51.482;9.160;2023-08-08T06:34:38;8.17;;;4.10;;
77769;SDS011;66961;51.482;9.160;2023-08-08T06:37:03;6.03;;;3.63;;
77769;SDS011;66961;51.482;9.160;2023-08-08T06:39:28;6.95;;;3.33;;
77769;SDS011;66961;51.482;9.160;2023-08-08T06:41:54;5.20;;;3.10;;
77769;SDS011;66961;51.482;9.160;2023-08-08T06:44:19;7.30;;;3.30;;
77769;SDS011;66961;51.482;9.160;2023-08-08T06:46:44;6.67;;;3.83;;
77769;SDS011;66961;51.482;9.160;2023-08-08T06:49:10;7.33;;;3.53;;
77769;SDS011;66961;51.482;9.160;2023-08-08T06:51:35;7.35;;;3.88;;
77769;SDS011;66961;51.482;9.160;2023-08-08T06:54:00;5.20;;;3.47;;
77769;SDS011;66961;51.482;9.160;2023-08-08T06:56:26;5.15;;;3.20;;
77769;SDS011;66961;51.482;9.160;2023-08-08T06:58:52;5.35;;;3.65;;
77769;SDS011;66961;51.482;9.160;2023-08-08T07:01:17;4.85;;;4.00;;
77769;SDS011;66961;51.482;9.160;2023-08-08T07:03:43;5.90;;;3.35;;
77769;SDS011;66961;51.482;9.160;2023-08-08T07:06:08;7.60;;;3.47;;
77769;SDS011;66961;51.482;9.160;2023-08-08T07:08:34;6.78;;;3.40;;
77769;SDS011;66961;51.482;9.160;2023-08-08T07:10:59;5.27;;;3.73;;
77769;SDS011;66961;51.482;9.160;2023-08-08T07:13:24;4.87;;;3.30;;
77769;SDS011;66961;51.482;9.160;2023-08-08T07:15:50;3.07;;;2.63;;
77769;SDS011;66961;51.482;9.160;2023-08-08T07:18:15;6.30;;;3.40;;
77769;SDS011;66961;51.482;9.160;2023-08-08T07:20:40;5.37;;;3.37;;
77769;SDS011;66961;51.482;9.160;2023-08-08T07:23:05;6.13;;;3.55;;
77769;SDS011;66961;51.482;9.160;2023-08-08T07:25:31;6.82;;;3.80;;
77769;SDS011;66961;51.482;9.160;2023-08-08T07:27:56;7.43;;;4.20;;
77769;SDS011;66961;51.482;9.160;2023-08-08T07:30:22;6.82;;;4.30;;
77769;SDS011;66961;51.482;9.160;2023-08-08T07:32:47;6.25;;;4.35;;
77769;SDS011;66961;51.482;9.160;2023-08-08T07:35:12;5.50;;;3.97;;
77769;SDS011;66961;51.482;9.160;2023-08-08T07:37:37;5.73;;;4.63;;
77769;SDS011;66961;51.482;9.160;2023-08-08T07:40:03;8.73;;;4.97;;
77769;SDS011;66961;51.482;9.160;2023-08-08T07:42:38;7.53;;;4.95;;
77769;SDS011;66961;51.482;9.160;2023-08-08T07:45:04;5.90;;;4.47;;
77769;SDS011;66961;51.482;9.160;2023-08-08T07:47:29;8.43;;;5.80;;
77769;SDS011;66961;51.482;9.160;2023-08-08T07:49:55;9.37;;;5.53;;
77769;SDS011;66961;51.482;9.160;2023-08-08T07:52:20;12.70;;;6.30;;
77769;SDS011;66961;51.482;9.160;2023-08-08T07:54:45;10.23;;;6.07;;
77769;SDS011;66961;51.482;9.160;2023-08-08T07:57:10;11.17;;;6.70;;
77769;SDS011;66961;51.482;9.160;2023-08-08T07:59:36;10.27;;;6.57;;
77769;SDS011;66961;51.482;9.160;2023-08-08T08:02:01;12.83;;;7.67;;
77769;SDS011;66961;51.482;9.160;2023-08-08T08:04:26;11.80;;;7.03;;
77769;SDS011;66961;51.482;9.160;2023-08-08T08:06:51;11.80;;;6.80;;
77769;SDS011;66961;51.482;9.160;2023-08-08T08:09:17;10.13;;;7.30;;
77769;SDS011;66961;51.482;9.160;2023-08-08T08:11:42;9.53;;;7.63;;
77769;SDS011;66961;51.482;9.160;2023-08-08T08:14:07;9.40;;;7.30;;
77769;SDS011;66961;51.482;9.160;2023-08-08T08:16:33;7.93;;;6.47;;
77769;SDS011;66961;51.482;9.160;2023-08-08T08:18:58;9.37;;;6.27;;
77769;SDS011;66961;51.482;9.160;2023-08-08T08:21:23;9.13;;;5.97;;
77769;SDS011;66961;51.482;9.160;2023-08-08T08:23:48;9.93;;;6.10;;
77769;SDS011;66961;51.482;9.160;2023-08-08T08:26:14;9.53;;;6.17;;
77769;SDS011;66961;51.482;9.160;2023-08-08T08:28:39;7.03;;;5.87;;
77769;SDS011;66961;51.482;9.160;2023-08-08T08:31:05;9.90;;;5.67;;
77769;SDS011;66961;51.482;9.160;2023-08-08T08:33:31;9.00;;;6.15;;
77769;SDS011;66961;51.482;9.160;2023-08-08T08:35:56;8.77;;;6.07;;
77769;SDS011;66961;51.482;9.160;2023-08-08T08:38:21;6.93;;;5.10;;
77769;SDS011;66961;51.482;9.160;2023-08-08T08:40:47;8.33;;;6.23;;
77769;SDS011;66961;51.482;9.160;2023-08-08T08:43:13;8.20;;;5.70;;
77769;SDS011;66961;51.482;9.160;2023-08-08T08:45:38;7.10;;;5.72;;
77769;SDS011;66961;51.482;9.160;2023-08-08T08:48:06;10.65;;;6.75;;
77769;SDS011;66961;51.482;9.160;2023-08-08T08:50:34;8.18;;;6.00;;
77769;SDS011;66961;51.482;9.160;2023-08-08T08:52:59;8.48;;;6.32;;
77769;SDS011;66961;51.482;9.160;2023-08-08T08:55:26;7.00;;;5.55;;
77769;SDS011;66961;51.482;9.160;2023-08-08T08:57:52;9.13;;;6.00;;
77769;SDS011;66961;51.482;9.160;2023-08-08T09:00:18;10.38;;;6.15;;
77769;SDS011;66961;51.482;9.160;2023-08-08T09:02:44;9.80;;;5.68;;
77769;SDS011;66961;51.482;9.160;2023-08-08T09:05:10;7.45;;;5.72;;
77769;SDS011;66961;51.482;9.160;2023-08-08T09:07:38;9.48;;;5.53;;
77769;SDS011;66961;51.482;9.160;2023-08-08T09:10:04;8.52;;;6.40;;
77769;SDS011;66961;51.482;9.160;2023-08-08T09:12:30;10.00;;;5.47;;
77769;SDS011;66961;51.482;9.160;2023-08-08T09:14:55;6.95;;;5.78;;
77769;SDS011;66961;51.482;9.160;2023-08-08T09:17:21;7.72;;;5.70;;
77769;SDS011;66961;51.482;9.160;2023-08-08T09:19:46;8.27;;;5.75;;
77769;SDS011;66961;51.482;9.160;2023-08-08T09:22:12;9.53;;;5.87;;
77769;SDS011;66961;51.482;9.160;2023-08-08T09:24:39;9.00;;;6.00;;
77769;SDS011;66961;51.482;9.160;2023-08-08T09:27:06;9.73;;;6.13;;
77769;SDS011;66961;51.482;9.160;2023-08-08T09:29:34;7.25;;;4.95;;
77769;SDS011;66961;51.482;9.160;2023-08-08T09:32:02;7.80;;;5.45;;
77769;SDS011;66961;51.482;9.160;2023-08-08T09:34:28;9.48;;;5.18;;
77769;SDS011;66961;51.482;9.160;2023-08-08T09:36:53;8.35;;;5.68;;
77769;SDS011;66961;51.482;9.160;2023-08-08T09:39:19;9.27;;;5.70;;
77769;SDS011;66961;51.482;9.160;2023-08-08T09:41:45;6.00;;;5.18;;
77769;SDS011;66961;51.482;9.160;2023-08-08T09:44:11;8.32;;;5.10;;
77769;SDS011;66961;51.482;9.160;2023-08-08T09:46:36;7.07;;;5.03;;
77769;SDS011;66961;51.482;9.160;2023-08-08T09:49:03;7.40;;;5.10;;
77769;SDS011;66961;51.482;9.160;2023-08-08T09:51:28;8.52;;;5.22;;
77769;SDS011;66961;51.482;9.160;2023-08-08T09:53:54;8.15;;;4.90;;
77769;SDS011;66961;51.482;9.160;2023-08-08T09:56:20;7.13;;;5.45;;
77769;SDS011;66961;51.482;9.160;2023-08-08T09:58:48;6.35;;;3.92;;
77769;SDS011;66961;51.482;9.160;2023-08-08T10:01:14;7.32;;;5.50;;
77769;SDS011;66961;51.482;9.160;2023-08-08T10:03:40;8.23;;;5.22;;
77769;SDS011;66961;51.482;9.160;2023-08-08T10:06:06;8.63;;;4.50;;
77769;SDS011;66961;51.482;9.160;2023-08-08T10:08:31;8.83;;;5.53;;
77769;SDS011;66961;51.482;9.160;2023-08-08T10:10:57;6.32;;;4.15;;
77769;SDS011;66961;51.482;9.160;2023-08-08T10:13:23;6.60;;;4.72;;
77769;SDS011;66961;51.482;9.160;2023-08-08T10:15:50;7.03;;;4.55;;
77769;SDS011;66961;51.482;9.160;2023-08-08T10:18:17;8.15;;;4.30;;
77769;SDS011;66961;51.482;9.160;2023-08-08T10:20:43;7.47;;;3.80;;
77769;SDS011;66961;51.482;9.160;2023-08-08T10:23:11;4.47;;;4.03;;
77769;SDS011;66961;51.482;9.160;2023-08-08T10:25:43;9.10;;;4.38;;
77769;SDS011;66961;51.482;9.160;2023-08-08T10:28:13;7.00;;;3.72;;
77769;SDS011;66961;51.482;9.160;2023-08-08T10:30:44;5.55;;;4.30;;
77769;SDS011;66961;51.482;9.160;2023-08-08T10:33:22;6.85;;;3.92;;
77769;SDS011;66961;51.482;9.160;2023-08-08T10:36:07;6.97;;;4.40;;
77769;SDS011;66961;51.482;9.160;2023-08-08T10:38:40;6.35;;;3.72;;
77769;SDS011;66961;51.482;9.160;2023-08-08T10:41:14;5.93;;;3.95;;
77769;SDS011;66961;51.482;9.160;2023-08-08T10:46:22;6.97;;;4.10;;
77769;SDS011;66961;51.482;9.160;2023-08-08T10:48:52;6.47;;;4.15;;
77769;SDS011;66961;51.482;9.160;2023-08-08T10:51:18;9.10;;;4.00;;
77769;SDS011;66961;51.482;9.160;2023-08-08T10:53:44;10.35;;;3.67;;
77769;SDS011;66961;51.482;9.160;2023-08-08T10:56:12;6.13;;;3.28;;
77769;SDS011;66961;51.482;9.160;2023-08-08T10:58:41;7.00;;;3.90;;
77769;SDS011;66961;51.482;9.160;2023-08-08T11:01:11;6.97;;;3.67;;
77769;SDS011;66961;51.482;9.160;2023-08-08T11:03:37;6.38;;;3.70;;
77769;SDS011;66961;51.482;9.160;2023-08-08T11:06:05;6.38;;;3.55;;
77769;SDS011;66961;51.482;9.160;2023-08-08T11:08:31;5.28;;;3.05;;
77769;SDS011;66961;51.482;9.160;2023-08-08T11:10:57;6.90;;;2.85;;
77769;SDS011;66961;51.482;9.160;2023-08-08T11:13:23;4.82;;;3.13;;
77769;SDS011;66961;51.482;9.160;2023-08-08T11:15:48;7.00;;;2.97;;
77769;SDS011;66961;51.482;9.160;2023-08-08T11:18:14;5.40;;;3.40;;
77769;SDS011;66961;51.482;9.160;2023-08-08T11:20:39;5.68;;;3.13;;
77769;SDS011;66961;51.482;9.160;2023-08-08T11:23:05;5.20;;;2.65;;
77769;SDS011;66961;51.482;9.160;2023-08-08T11:25:30;4.90;;;3.03;;
77769;SDS011;66961;51.482;9.160;2023-08-08T11:27:57;4.00;;;2.80;;
77769;SDS011;66961;51.482;9.160;2023-08-08T11:30:23;4.10;;;2.47;;
77769;SDS011;66961;51.482;9.160;2023-08-08T11:32:52;5.28;;;2.55;;
77769;SDS011;66961;51.482;9.160;2023-08-08T11:35:21;6.72;;;2.58;;
77769;SDS011;66961;51.482;9.160;2023-08-08T11:37:48;4.07;;;2.28;;
77769;SDS011;66961;51.482;9.160;2023-08-08T11:40:16;7.00;;;3.13;;
77769;SDS011;66961;51.482;9.160;2023-08-08T11:42:41;5.88;;;3.10;;
77769;SDS011;66961;51.482;9.160;2023-08-08T11:45:08;4.65;;;2.35;;
77769;SDS011;66961;51.482;9.160;2023-08-08T11:47:34;4.88;;;2.00;;
77769;SDS011;66961;51.482;9.160;2023-08-08T11:50:00;4.18;;;2.22;;
77769;SDS011;66961;51.482;9.160;2023-08-08T11:52:25;2.88;;;2.00;;
77769;SDS011;66961;51.482;9.160;2023-08-08T11:54:51;3.72;;;2.20;;
77769;SDS011;66961;51.482;9.160;2023-08-08T11:57:16;4.95;;;2.20;;
77769;SDS011;66961;51.482;9.160;2023-08-08T11:59:42;6.07;;;2.40;;
77769;SDS011;66961;51.482;9.160;2023-08-08T12:02:07;4.30;;;2.80;;
77769;SDS011;66961;51.482;9.160;2023-08-08T12:04:34;4.43;;;2.40;;
77769;SDS011;66961;51.482;9.160;2023-08-08T12:07:00;5.32;;;2.60;;
77769;SDS011;66961;51.482;9.160;2023-08-08T12:09:29;2.88;;;2.13;;
77769;SDS011;66961;51.482;9.160;2023-08-08T12:11:58;3.85;;;2.40;;
77769;SDS011;66961;51.482;9.160;2023-08-08T12:14:24;4.38;;;2.42;;
77769;SDS011;66961;51.482;9.160;2023-08-08T12:16:49;4.13;;;2.40;;
77769;SDS011;66961;51.482;9.160;2023-08-08T12:19:15;6.97;;;2.27;;
77769;SDS011;66961;51.482;9.160;2023-08-08T12:21:40;6.83;;;2.77;;
77769;SDS011;66961;51.482;9.160;2023-08-08T12:24:05;8.17;;;2.33;;
77769;SDS011;66961;51.482;9.160;2023-08-08T12:26:31;4.53;;;2.45;;
77769;SDS011;66961;51.482;9.160;2023-08-08T12:28:56;5.63;;;2.95;;
77769;SDS011;66961;51.482;9.160;2023-08-08T12:31:22;7.57;;;3.05;;
77769;SDS011;66961;51.482;9.160;2023-08-08T12:33:47;7.53;;;3.73;;
77769;SDS011;66961;51.482;9.160;2023-08-08T12:36:12;6.83;;;3.33;;
77769;SDS011;66961;51.482;9.160;2023-08-08T12:38:38;8.57;;;3.13;;
77769;SDS011;66961;51.482;9.160;2023-08-08T12:41:03;8.40;;;4.43;;
77769;SDS011;66961;51.482;9.160;2023-08-08T12:43:28;9.43;;;3.85;;
77769;SDS011;66961;51.482;9.160;2023-08-08T12:45:53;7.07;;;4.37;;
77769;SDS011;66961;51.482;9.160;2023-08-08T12:48:19;7.87;;;3.97;;
77769;SDS011;66961;51.482;9.160;2023-08-08T12:50:44;6.57;;;4.17;;
77769;SDS011;66961;51.482;9.160;2023-08-08T12:53:09;7.97;;;3.37;;
77769;SDS011;66961;51.482;9.160;2023-08-08T12:55:34;5.23;;;3.63;;
77769;SDS011;66961;51.482;9.160;2023-08-08T12:58:00;8.47;;;4.23;;
77769;SDS011;66961;51.482;9.160;2023-08-08T13:00:26;4.63;;;3.22;;
77769;SDS011;66961;51.482;9.160;2023-08-08T13:02:51;5.80;;;3.40;;
77769;SDS011;66961;51.482;9.160;2023-08-08T13:05:16;6.97;;;3.37;;
77769;SDS011;66961;51.482;9.160;2023-08-08T13:07:42;4.80;;;3.20;;
77769;SDS011;66961;51.482;9.160;2023-08-08T13:10:07;4.73;;;3.00;;
77769;SDS011;66961;51.482;9.160;2023-08-08T13:12:32;6.50;;;2.83;;
77769;SDS011;66961;51.482;9.160;2023-08-08T13:14:58;5.32;;;2.92;;
77769;SDS011;66961;51.482;9.160;2023-08-08T13:17:23;4.70;;;2.33;;
77769;SDS011;66961;51.482;9.160;2023-08-08T13:19:48;3.30;;;2.33;;
77769;SDS011;66961;51.482;9.160;2023-08-08T13:22:14;4.33;;;2.33;;
77769;SDS011;66961;51.482;9.160;2023-08-08T13:24:39;3.67;;;2.20;;
77769;SDS011;66961;51.482;9.160;2023-08-08T13:27:04;2.93;;;2.07;;
77769;SDS011;66961;51.482;9.160;2023-08-08T13:29:30;3.70;;;1.98;;
77769;SDS011;66961;51.482;9.160;2023-08-08T13:31:55;4.33;;;2.10;;
77769;SDS011;66961;51.482;9.160;2023-08-08T13:34:20;5.00;;;2.20;;
77769;SDS011;66961;51.482;9.160;2023-08-08T13:36:45;4.50;;;2.20;;
77769;SDS011;66961;51.482;9.160;2023-08-08T13:39:11;4.03;;;2.10;;
77769;SDS011;66961;51.482;9.160;2023-08-08T13:41:36;3.50;;;2.30;;
77769;SDS011;66961;51.482;9.160;2023-08-08T13:44:01;5.40;;;2.20;;
77769;SDS011;66961;51.482;9.160;2023-08-08T13:46:26;3.85;;;2.10;;
77769;SDS011;66961;51.482;9.160;2023-08-08T13:48:52;4.87;;;2.30;;
77769;SDS011;66961;51.482;9.160;2023-08-08T13:51:17;4.47;;;2.17;;
77769;SDS011;66961;51.482;9.160;2023-08-08T13:53:42;2.77;;;2.10;;
77769;SDS011;66961;51.482;9.160;2023-08-08T13:56:08;3.67;;;2.23;;
77769;SDS011;66961;51.482;9.160;2023-08-08T13:58:33;5.17;;;2.60;;
77769;SDS011;66961;51.482;9.160;2023-08-08T14:00:58;4.97;;;2.30;;
77769;SDS011;66961;51.482;9.160;2023-08-08T14:03:23;4.23;;;1.97;;
77769;SDS011;66961;51.482;9.160;2023-08-08T14:05:49;3.63;;;1.88;;
77769;SDS011;66961;51.482;9.160;2023-08-08T14:08:15;3.22;;;1.83;;
77769;SDS011;66961;51.482;9.160;2023-08-08T14:10:40;3.92;;;1.52;;
77769;SDS011;66961;51.482;9.160;2023-08-08T14:13:06;3.08;;;1.42;;
77769;SDS011;66961;51.482;9.160;2023-08-08T14:15:31;3.17;;;1.70;;
77769;SDS011;66961;51.482;9.160;2023-08-08T14:17:56;4.23;;;1.70;;
77769;SDS011;66961;51.482;9.160;2023-08-08T14:20:21;4.33;;;1.90;;
77769;SDS011;66961;51.482;9.160;2023-08-08T14:22:47;5.80;;;2.05;;
77769;SDS011;66961;51.482;9.160;2023-08-08T14:25:12;3.67;;;1.67;;
77769;SDS011;66961;51.482;9.160;2023-08-08T14:27:38;5.57;;;2.05;;
77769;SDS011;66961;51.482;9.160;2023-08-08T14:30:03;3.67;;;1.75;;
77769;SDS011;66961;51.482;9.160;2023-08-08T14:32:29;4.55;;;1.60;;
77769;SDS011;66961;51.482;9.160;2023-08-08T14:34:54;3.92;;;1.80;;
77769;SDS011;66961;51.482;9.160;2023-08-08T14:37:20;8.15;;;1.80;;
77769;SDS011;66961;51.482;9.160;2023-08-08T14:39:45;3.22;;;1.60;;
77769;SDS011;66961;51.482;9.160;2023-08-08T14:42:11;3.87;;;1.90;;
77769;SDS011;66961;51.482;9.160;2023-08-08T14:44:36;3.60;;;1.90;;